createdAt,value
2017-08-18T00:00:32.718Z,67.18
2017-08-18T00:03:00.338Z,67.27
2017-08-18T00:05:27.944Z,68.17
2017-08-18T00:07:55.933Z,68.71
2017-08-18T00:10:23.490Z,68.52
2017-08-18T00:12:51.105Z,67.95
2017-08-18T00:15:18.783Z,67.79
2017-08-18T00:17:46.960Z,67.76
2017-08-18T00:20:14.497Z,67.70
2017-08-18T00:22:42.375Z,68.04
2017-08-18T00:25:09.910Z,68.36
2017-08-18T00:27:37.551Z,68.15
2017-08-18T00:30:05.088Z,68.26
2017-08-18T00:32:34.161Z,68.22
2017-08-18T00:35:01.850Z,68.32
2017-08-18T00:37:30.147Z,68.49
2017-08-18T00:39:57.904Z,67.97
2017-08-18T00:42:25.481Z,68.07
2017-08-18T00:44:53.071Z,68.46
2017-08-18T00:47:20.686Z,68.86
2017-08-18T00:49:48.283Z,68.95
2017-08-18T00:52:16.001Z,69.23
2017-08-18T00:54:43.554Z,68.98
2017-08-18T00:57:11.085Z,69.29
2017-08-18T00:59:38.637Z,69.30
2017-08-18T01:02:06.189Z,69.24
2017-08-18T01:04:33.837Z,69.33
2017-08-18T01:07:01.457Z,69.22
2017-08-18T01:09:29.758Z,68.99
2017-08-18T01:11:57.417Z,68.61
2017-08-18T01:14:25.054Z,68.72
2017-08-18T01:16:53.431Z,68.65
2017-08-18T01:19:21.067Z,68.73
2017-08-18T01:21:48.683Z,69.19
2017-08-18T01:24:18.941Z,68.72
2017-08-18T01:26:47.039Z,68.75
2017-08-18T01:29:14.617Z,69.07
2017-08-18T01:31:42.299Z,68.93
2017-08-18T01:34:09.870Z,69.53
2017-08-18T01:36:37.473Z,69.39
2017-08-18T01:39:05.625Z,69.48
2017-08-18T01:41:33.829Z,69.26
2017-08-18T01:44:01.466Z,69.60
2017-08-18T01:46:28.976Z,69.42
2017-08-18T01:48:56.613Z,69.45
2017-08-18T01:51:24.210Z,69.36
2017-08-18T01:53:51.788Z,69.71
2017-08-18T01:56:19.385Z,69.89
2017-08-18T01:58:50.041Z,69.45
2017-08-18T02:01:17.587Z,69.49
2017-08-18T02:03:46.019Z,69.56
2017-08-18T02:06:13.668Z,69.58
2017-08-18T02:08:41.252Z,69.54
2017-08-18T02:11:08.764Z,69.75
2017-08-18T02:13:36.379Z,69.84
2017-08-18T02:16:04.743Z,69.78
2017-08-18T02:18:32.299Z,69.72
2017-08-18T02:21:00.061Z,69.43
2017-08-18T02:23:27.627Z,69.72
2017-08-18T02:25:55.190Z,70.15
2017-08-18T02:28:22.728Z,70.00
2017-08-18T02:30:50.326Z,69.77
2017-08-18T02:33:18.663Z,69.50
2017-08-18T02:35:46.239Z,69.52
2017-08-18T02:38:13.924Z,69.63
2017-08-18T02:40:41.521Z,69.72
2017-08-18T02:43:09.031Z,69.59
2017-08-18T02:45:39.711Z,69.74
2017-08-18T02:48:07.346Z,69.89
2017-08-18T02:50:34.866Z,69.99
2017-08-18T02:53:02.497Z,70.09
2017-08-18T02:55:30.035Z,70.05
2017-08-18T02:57:57.918Z,69.99
2017-08-18T03:00:25.493Z,70.12
2017-08-18T03:02:53.067Z,69.87
2017-08-18T03:05:21.404Z,70.11
2017-08-18T03:07:49.000Z,71.15
2017-08-18T03:10:17.394Z,71.24
2017-08-18T03:12:46.079Z,71.39
2017-08-18T03:15:14.392Z,71.46
2017-08-18T03:17:42.781Z,71.43
2017-08-18T03:20:10.474Z,71.51
2017-08-18T03:22:38.814Z,71.50
2017-08-18T03:25:06.368Z,71.66
2017-08-18T03:27:34.560Z,71.80
2017-08-18T03:30:02.281Z,71.76
2017-08-18T03:32:29.793Z,71.79
2017-08-18T03:34:57.318Z,71.88
2017-08-18T03:37:24.898Z,71.85
2017-08-18T03:39:52.488Z,72.10
2017-08-18T03:42:20.125Z,71.72
2017-08-18T03:44:47.668Z,71.78
2017-08-18T03:47:15.277Z,71.80
2017-08-18T03:49:44.084Z,71.60
2017-08-18T03:52:11.707Z,71.75
2017-08-18T03:54:39.207Z,71.94
2017-08-18T03:57:06.805Z,71.96
2017-08-18T03:59:34.683Z,71.55
2017-08-18T04:02:02.242Z,71.61
2017-08-18T04:04:29.741Z,71.73
2017-08-18T04:06:57.274Z,71.47
2017-08-18T04:09:24.768Z,71.25
2017-08-18T04:11:52.251Z,71.14
2017-08-18T04:14:19.795Z,72.13
2017-08-18T04:16:51.524Z,72.11
2017-08-18T04:19:19.080Z,72.01
2017-08-18T04:21:46.667Z,71.98
2017-08-18T04:24:14.194Z,72.03
2017-08-18T04:26:41.861Z,71.89
2017-08-18T04:29:09.428Z,71.79
2017-08-18T04:31:36.970Z,71.57
2017-08-18T04:34:04.542Z,71.63
2017-08-18T04:36:32.090Z,71.29
2017-08-18T04:38:59.580Z,71.08
2017-08-18T04:41:27.080Z,71.52
2017-08-18T04:43:54.562Z,71.45
2017-08-18T04:46:22.051Z,71.22
2017-08-18T04:48:49.508Z,70.96
2017-08-18T04:51:16.964Z,70.97
2017-08-18T04:53:44.455Z,71.10
2017-08-18T04:56:11.954Z,70.64
2017-08-18T04:58:39.560Z,70.51
2017-08-18T05:01:07.059Z,70.12
2017-08-18T05:03:34.557Z,69.77
2017-08-18T05:06:02.052Z,69.64
2017-08-18T05:08:29.645Z,69.52
2017-08-18T05:10:57.157Z,69.24
2017-08-18T05:13:24.756Z,68.92
2017-08-18T05:15:52.247Z,68.71
2017-08-18T05:18:19.763Z,68.50
2017-08-18T05:20:47.247Z,68.54
2017-08-18T05:23:14.714Z,68.30
2017-08-18T05:25:42.208Z,67.94
2017-08-18T05:28:09.670Z,67.95
2017-08-18T05:30:37.180Z,68.04
2017-08-18T05:33:04.701Z,68.54
2017-08-18T05:35:32.202Z,68.67
2017-08-18T05:37:59.695Z,69.16
2017-08-18T05:40:27.195Z,69.62
2017-08-18T05:42:54.692Z,69.37
2017-08-18T05:45:23.221Z,69.08
2017-08-18T05:47:50.742Z,68.47
2017-08-18T05:50:18.240Z,66.91
2017-08-18T05:52:45.733Z,63.88
2017-08-18T05:55:13.278Z,64.40
2017-08-18T05:57:40.800Z,64.76
2017-08-18T06:00:08.300Z,64.62
2017-08-18T06:02:35.780Z,60.11
2017-08-18T06:05:03.342Z,57.72
2017-08-18T06:07:30.835Z,58.19
2017-08-18T06:09:58.395Z,57.03
2017-08-18T06:12:25.994Z,53.39
2017-08-18T06:14:53.513Z,49.77
2017-08-18T06:17:21.027Z,52.08
2017-08-18T06:19:48.539Z,54.13
2017-08-18T06:22:16.767Z,55.96
2017-08-18T06:24:44.280Z,57.66
2017-08-18T06:27:11.784Z,58.70
2017-08-18T06:29:39.326Z,58.56
2017-08-18T06:32:06.816Z,55.16
2017-08-18T06:34:34.361Z,53.16
2017-08-18T06:37:01.863Z,52.69
2017-08-18T06:39:29.363Z,49.38
2017-08-18T06:41:57.013Z,46.60
2017-08-18T06:44:24.682Z,47.94
2017-08-18T06:46:52.335Z,48.83
2017-08-18T06:49:19.871Z,50.00
2017-08-18T06:51:47.433Z,51.29
2017-08-18T06:54:14.983Z,52.66
2017-08-18T06:56:42.469Z,52.94
2017-08-18T06:59:09.984Z,53.22
2017-08-18T07:01:37.474Z,52.70
2017-08-18T07:04:05.612Z,53.41
2017-08-18T07:06:33.138Z,53.69
2017-08-18T07:09:00.646Z,54.57
2017-08-18T07:11:28.187Z,56.37
2017-08-18T07:13:55.707Z,57.39
2017-08-18T07:16:23.324Z,57.33
2017-08-18T07:18:50.853Z,55.29
2017-08-18T07:21:18.475Z,54.54
2017-08-18T07:23:45.991Z,56.28
2017-08-18T07:26:13.488Z,56.76
2017-08-18T07:28:41.034Z,56.73
2017-08-18T07:31:08.581Z,57.06
2017-08-18T07:33:36.119Z,57.17
2017-08-18T07:36:03.635Z,56.67
2017-08-18T07:38:31.193Z,56.41
2017-08-18T07:40:58.712Z,56.31
2017-08-18T07:43:26.194Z,57.17
2017-08-18T07:45:53.712Z,57.85
2017-08-18T07:48:21.224Z,56.91
2017-08-18T07:50:48.699Z,57.77
2017-08-18T07:53:16.219Z,56.80
2017-08-18T07:55:43.708Z,55.83
2017-08-18T07:58:12.332Z,56.20
2017-08-18T08:00:39.986Z,56.11
2017-08-18T08:03:07.564Z,55.53
2017-08-18T08:05:35.228Z,55.27
2017-08-18T08:08:02.820Z,53.66
2017-08-18T08:10:30.357Z,53.37
2017-08-18T08:12:57.856Z,53.68
2017-08-18T08:15:25.349Z,53.27
2017-08-18T08:17:52.928Z,51.14
2017-08-18T08:20:21.184Z,49.61
2017-08-18T08:22:48.723Z,48.92
2017-08-18T08:25:16.259Z,48.73
2017-08-18T08:28:16.177Z,49.43
2017-08-18T08:30:43.731Z,47.87
2017-08-18T08:33:12.132Z,48.03
2017-08-18T08:35:39.706Z,48.36
2017-08-18T08:38:07.159Z,47.57
2017-08-18T08:40:34.647Z,46.54
2017-08-18T08:43:02.099Z,46.02
2017-08-18T08:45:29.605Z,46.46
2017-08-18T08:47:57.065Z,46.58
2017-08-18T08:50:24.524Z,45.49
2017-08-18T08:52:52.609Z,44.99
2017-08-18T08:55:20.103Z,45.95
2017-08-18T08:57:47.623Z,45.02
2017-08-18T09:00:15.137Z,44.83
2017-08-18T09:02:42.815Z,43.87
2017-08-18T09:05:10.316Z,45.76
2017-08-18T09:07:37.806Z,43.71
2017-08-18T09:10:05.296Z,43.37
2017-08-18T09:12:32.789Z,44.02
2017-08-18T09:15:00.365Z,43.64
2017-08-18T09:17:28.992Z,43.50
2017-08-18T09:19:56.496Z,43.40
2017-08-18T09:22:24.000Z,43.20
2017-08-18T09:24:51.511Z,42.55
2017-08-18T09:27:19.108Z,42.80
2017-08-18T09:29:46.600Z,41.73
2017-08-18T09:32:14.086Z,41.46
2017-08-18T09:34:41.598Z,41.61
2017-08-18T09:37:09.085Z,41.96
2017-08-18T09:39:36.609Z,41.63
2017-08-18T09:42:04.808Z,42.34
2017-08-18T09:44:32.347Z,42.07
2017-08-18T09:46:59.824Z,42.48
2017-08-18T09:49:39.127Z,41.37
2017-08-18T09:52:18.230Z,41.29
2017-08-18T09:54:58.523Z,41.83
2017-08-18T09:57:37.850Z,41.73
2017-08-18T10:00:05.371Z,42.11
2017-08-18T10:02:33.004Z,42.07
2017-08-18T10:05:00.860Z,42.38
2017-08-18T10:07:28.395Z,41.43
2017-08-18T10:09:56.374Z,40.94
2017-08-18T10:12:23.978Z,41.88
2017-08-18T10:14:51.819Z,41.19
2017-08-18T10:17:19.346Z,41.50
2017-08-18T10:19:46.853Z,40.91
2017-08-18T10:22:14.442Z,40.37
2017-08-18T10:24:42.137Z,40.00
2017-08-18T10:27:10.715Z,39.92
2017-08-18T10:29:38.218Z,40.72
2017-08-18T10:32:05.726Z,41.08
2017-08-18T10:34:33.396Z,40.06
2017-08-18T10:37:00.953Z,39.66
2017-08-18T10:39:28.481Z,40.55
2017-08-18T10:41:56.139Z,41.01
2017-08-18T10:44:23.808Z,40.61
2017-08-18T10:46:51.338Z,40.79
2017-08-18T10:49:18.880Z,40.11
2017-08-18T10:51:47.129Z,39.97
2017-08-18T10:54:14.770Z,39.98
2017-08-18T10:56:42.368Z,40.25
2017-08-18T10:59:10.130Z,39.06
2017-08-18T11:01:38.496Z,39.85
2017-08-18T11:04:06.247Z,39.55
2017-08-18T11:06:34.992Z,41.21
2017-08-18T11:09:04.973Z,38.98
2017-08-18T11:11:32.494Z,38.68
2017-08-18T11:13:59.973Z,38.30
2017-08-18T11:16:27.480Z,38.93
2017-08-18T11:18:54.960Z,38.92
2017-08-18T11:21:22.615Z,38.51
2017-08-18T11:23:50.099Z,38.01
2017-08-18T11:26:18.004Z,36.88
2017-08-18T11:28:45.583Z,37.50
2017-08-18T11:31:13.203Z,37.99
2017-08-18T11:33:40.808Z,36.33
2017-08-18T11:36:08.360Z,37.42
2017-08-18T11:38:35.892Z,36.93
2017-08-18T11:41:03.374Z,37.32
2017-08-18T11:43:31.401Z,37.50
2017-08-18T11:45:59.166Z,37.16
2017-08-18T11:48:26.744Z,36.04
2017-08-18T11:50:54.297Z,37.22
2017-08-18T11:53:21.848Z,36.98
2017-08-18T11:55:50.039Z,38.13
2017-08-18T11:58:17.621Z,37.23
2017-08-18T12:00:45.416Z,37.03
2017-08-18T12:03:12.970Z,36.95
2017-08-18T12:05:40.541Z,37.07
2017-08-18T12:08:09.081Z,36.54
2017-08-18T12:10:36.581Z,35.94
2017-08-18T12:13:04.137Z,36.61
2017-08-18T12:15:31.891Z,36.22
2017-08-18T12:18:00.047Z,35.50
2017-08-18T12:20:27.633Z,36.08
2017-08-18T12:22:55.180Z,35.97
2017-08-18T12:25:23.009Z,36.47
2017-08-18T12:27:50.717Z,35.30
2017-08-18T12:30:18.233Z,34.60
2017-08-18T12:32:45.793Z,35.81
2017-08-18T12:35:13.468Z,36.10
2017-08-18T12:37:41.351Z,35.17
2017-08-18T12:40:09.046Z,35.54
2017-08-18T12:42:36.610Z,34.44
2017-08-18T12:45:04.375Z,31.00
2017-08-18T12:47:32.080Z,28.66
2017-08-18T12:49:59.579Z,26.54
2017-08-18T12:52:27.141Z,25.01
2017-08-18T12:54:54.768Z,26.04
2017-08-18T12:57:22.308Z,27.17
2017-08-18T12:59:49.925Z,26.39
2017-08-18T13:02:17.545Z,27.43
2017-08-18T13:04:45.080Z,26.63
2017-08-18T13:07:12.648Z,25.76
2017-08-18T13:09:40.362Z,24.13
2017-08-18T13:12:08.110Z,25.37
2017-08-18T13:14:35.648Z,30.05
2017-08-18T13:17:04.946Z,31.16
2017-08-18T13:19:32.582Z,31.88
2017-08-18T13:22:00.256Z,32.04
2017-08-18T13:24:28.237Z,32.65
2017-08-18T13:26:55.823Z,32.72
2017-08-18T13:29:23.491Z,31.48
2017-08-18T13:31:51.068Z,30.25
2017-08-18T13:34:18.665Z,31.72
2017-08-18T13:36:46.306Z,32.44
2017-08-18T13:39:14.995Z,33.42
2017-08-18T13:41:42.532Z,33.90
2017-08-18T13:44:10.145Z,35.12
2017-08-18T13:46:37.709Z,36.70
2017-08-18T13:49:05.331Z,35.86
2017-08-18T13:51:32.845Z,35.84
2017-08-18T13:54:00.432Z,35.39
2017-08-18T13:56:28.048Z,35.02
2017-08-18T13:58:56.536Z,34.91
2017-08-18T14:01:24.072Z,33.65
2017-08-18T14:03:51.735Z,34.01
2017-08-18T14:06:19.309Z,34.32
2017-08-18T14:08:46.940Z,33.73
2017-08-18T14:11:14.503Z,33.78
2017-08-18T14:13:42.088Z,34.47
2017-08-18T14:16:09.913Z,33.30
2017-08-18T14:18:37.647Z,31.18
2017-08-18T14:21:05.161Z,31.51
2017-08-18T14:23:32.743Z,30.84
2017-08-18T14:26:05.883Z,29.17
2017-08-18T14:28:33.515Z,28.70
2017-08-18T14:31:01.011Z,28.50
2017-08-18T14:33:28.554Z,28.71
2017-08-18T14:35:56.127Z,29.69
2017-08-18T14:38:23.771Z,29.20
2017-08-18T14:40:51.244Z,29.78
2017-08-18T14:43:18.817Z,31.18
2017-08-18T14:45:46.519Z,30.41
2017-08-18T14:48:14.056Z,29.89
2017-08-18T14:50:41.628Z,30.53
2017-08-18T14:53:09.186Z,31.70
2017-08-18T14:55:37.152Z,31.99
2017-08-18T14:58:04.764Z,32.75
2017-08-18T15:00:32.275Z,33.37
2017-08-18T15:02:59.830Z,33.21
2017-08-18T15:05:27.647Z,32.74
2017-08-18T15:07:55.256Z,33.58
2017-08-18T15:10:22.756Z,33.53
2017-08-18T15:12:51.571Z,33.73
2017-08-18T15:15:19.188Z,34.30
2017-08-18T15:17:46.665Z,35.37
2017-08-18T15:20:14.175Z,36.37
2017-08-18T15:22:43.447Z,40.16
2017-08-18T15:25:12.597Z,42.64
2017-08-18T15:27:44.177Z,43.16
2017-08-18T15:30:13.378Z,46.37
2017-08-18T15:32:41.085Z,52.10
2017-08-18T15:35:08.603Z,56.20
2017-08-18T15:37:36.214Z,60.46
2017-08-18T15:40:03.723Z,63.62
2017-08-18T15:42:32.574Z,70.35
2017-08-18T15:45:00.451Z,65.88
2017-08-18T15:47:27.944Z,69.34
2017-08-18T15:49:55.488Z,71.35
2017-08-18T15:52:22.999Z,71.28
2017-08-18T15:54:50.556Z,68.99
2017-08-18T15:57:18.060Z,72.69
2017-08-18T15:59:45.633Z,69.20
2017-08-18T16:02:13.160Z,69.63
2017-08-18T16:04:41.820Z,69.89
2017-08-18T16:07:09.390Z,70.40
2017-08-18T16:09:36.951Z,72.42
2017-08-18T16:12:04.503Z,71.82
2017-08-18T16:14:32.013Z,71.50
2017-08-18T16:17:00.129Z,72.79
2017-08-18T16:19:27.660Z,72.81
2017-08-18T16:21:55.344Z,75.98
2017-08-18T16:24:23.020Z,72.18
2017-08-18T16:26:51.045Z,73.80
2017-08-18T16:29:18.509Z,70.22
2017-08-18T16:31:46.611Z,71.51
2017-08-18T16:34:14.094Z,71.39
2017-08-18T16:36:42.980Z,72.87
2017-08-18T16:39:10.773Z,69.79
2017-08-18T16:41:38.288Z,71.45
2017-08-18T16:44:05.859Z,67.98
2017-08-18T16:46:33.324Z,68.14
2017-08-18T16:49:00.821Z,68.09
2017-08-18T16:51:28.355Z,67.00
2017-08-18T16:53:56.995Z,67.96
2017-08-18T16:56:24.549Z,67.73
2017-08-18T16:58:52.042Z,67.04
2017-08-18T17:01:19.546Z,67.09
2017-08-18T17:03:47.347Z,67.11
2017-08-18T17:06:15.476Z,68.96
2017-08-18T17:08:45.526Z,68.05
2017-08-18T17:11:13.170Z,67.63
2017-08-18T17:13:41.367Z,67.78
2017-08-18T17:16:08.961Z,66.89
2017-08-18T17:18:37.661Z,67.58
2017-08-18T17:21:08.038Z,66.76
2017-08-18T17:23:35.626Z,67.20
2017-08-18T17:26:03.214Z,66.41
2017-08-18T17:28:30.873Z,67.75
2017-08-18T17:31:00.304Z,67.43
2017-08-18T17:33:27.898Z,71.74
2017-08-18T17:38:39.378Z,76.29
2017-08-18T17:41:07.482Z,78.82
2017-08-18T17:43:35.053Z,79.67
2017-08-18T17:46:08.983Z,78.33
2017-08-18T17:48:39.458Z,78.27
2017-08-18T17:51:10.319Z,76.34
2017-08-18T17:53:43.635Z,76.69
2017-08-18T17:56:14.805Z,75.25
2017-08-18T17:58:46.264Z,75.99
2017-08-18T18:01:19.149Z,74.98
2017-08-18T18:03:49.912Z,74.41
2017-08-18T18:06:26.876Z,73.56
2017-08-18T18:08:55.979Z,71.22
2017-08-18T18:11:25.191Z,69.62
2017-08-18T18:13:55.350Z,69.82
2017-08-18T18:16:24.750Z,70.72
2017-08-18T18:18:53.944Z,70.98
2017-08-18T18:21:23.916Z,71.51
2017-08-18T18:23:53.151Z,70.36
2017-08-18T18:26:23.119Z,71.28
2017-08-18T18:28:52.842Z,70.65
2017-08-18T18:31:23.419Z,70.39
2017-08-18T18:33:54.294Z,69.86
2017-08-18T18:36:23.695Z,69.65
2017-08-18T18:38:52.999Z,70.96
2017-08-18T18:41:22.353Z,71.58
2017-08-18T18:43:52.065Z,70.66
2017-08-18T18:46:21.295Z,72.14
2017-08-18T18:48:51.131Z,72.94
2017-08-18T18:51:20.410Z,72.71
2017-08-18T18:53:49.858Z,72.71
2017-08-18T18:56:19.142Z,71.35
2017-08-18T18:58:48.534Z,70.83
2017-08-18T19:01:19.132Z,71.12
2017-08-18T19:03:48.466Z,71.18
2017-08-18T19:06:17.420Z,70.46
2017-08-18T19:08:47.195Z,70.85
2017-08-18T19:11:16.642Z,70.84
2017-08-18T19:13:46.854Z,70.62
2017-08-18T19:16:16.901Z,72.51
2017-08-18T19:18:46.873Z,71.48
2017-08-18T19:21:16.586Z,71.98
2017-08-18T19:23:45.533Z,71.18
2017-08-18T19:26:15.523Z,71.09
2017-08-18T19:28:44.752Z,70.86
2017-08-18T19:31:14.735Z,69.55
2017-08-18T19:33:44.276Z,70.45
2017-08-18T19:36:13.983Z,71.03
2017-08-18T19:38:43.176Z,71.52
2017-08-18T19:41:13.117Z,72.23
2017-08-18T19:43:43.337Z,72.07
2017-08-18T19:46:13.949Z,71.75
2017-08-18T19:48:43.263Z,71.72
2017-08-18T19:51:12.550Z,71.37
2017-08-18T19:53:43.488Z,71.30
2017-08-18T19:56:14.072Z,71.00
2017-08-18T19:58:44.103Z,71.94
2017-08-18T20:01:15.304Z,71.57
2017-08-18T20:03:46.529Z,71.23
2017-08-18T20:06:15.759Z,70.84
2017-08-18T20:08:45.219Z,73.47
2017-08-18T20:11:14.976Z,72.90
2017-08-18T20:13:44.776Z,73.11
2017-08-18T20:16:15.397Z,73.59
2017-08-18T20:18:46.006Z,73.71
2017-08-18T20:21:16.092Z,72.28
2017-08-18T20:23:46.281Z,73.42
2017-08-18T20:26:15.760Z,72.54
2017-08-18T20:28:45.836Z,73.22
2017-08-18T20:31:15.790Z,73.69
2017-08-18T20:33:45.444Z,71.12
2017-08-18T20:36:15.219Z,72.60
2017-08-18T20:38:45.017Z,72.68
2017-08-18T20:41:15.446Z,72.47
2017-08-18T20:43:45.641Z,72.34
2017-08-18T20:46:15.755Z,72.45
2017-08-18T20:48:46.350Z,70.65
2017-08-18T20:51:15.888Z,71.92
2017-08-18T20:53:45.199Z,72.20
2017-08-18T20:56:15.155Z,71.62
2017-08-18T20:58:44.606Z,73.03
2017-08-18T21:01:15.638Z,73.63
2017-08-18T21:03:45.073Z,73.47
2017-08-18T21:06:15.374Z,73.38
2017-08-18T21:08:45.230Z,73.04
2017-08-18T21:11:14.795Z,73.15
2017-08-18T21:13:45.154Z,73.41
2017-08-18T21:16:15.076Z,73.63
2017-08-18T21:18:44.179Z,74.77
2017-08-18T21:21:13.585Z,73.61
2017-08-18T21:23:43.212Z,73.50
2017-08-18T21:26:12.789Z,74.15
2017-08-18T21:28:42.524Z,73.06
2017-08-18T21:31:12.212Z,73.14
2017-08-18T21:33:42.719Z,74.13
2017-08-18T21:36:11.961Z,74.42
2017-08-18T21:38:43.508Z,72.67
2017-08-18T21:41:12.618Z,73.69
2017-08-18T21:43:42.096Z,74.01
2017-08-18T21:46:11.629Z,73.10
2017-08-18T21:48:42.034Z,73.69
2017-08-18T21:51:11.041Z,72.60
2017-08-18T21:53:41.599Z,72.95
2017-08-18T21:56:11.449Z,73.38
2017-08-18T21:58:40.776Z,72.88
2017-08-18T22:01:10.608Z,73.34
2017-08-18T22:03:40.170Z,72.27
2017-08-18T22:06:09.518Z,73.21
2017-08-18T22:08:39.245Z,72.98
2017-08-18T22:11:08.599Z,73.52
2017-08-18T22:13:38.358Z,73.38
2017-08-18T22:16:08.037Z,73.13
2017-08-18T22:18:37.444Z,72.71
2017-08-18T22:21:07.080Z,73.02
2017-08-18T22:23:36.758Z,71.89
2017-08-18T22:26:05.951Z,71.84
2017-08-18T22:28:36.023Z,73.00
2017-08-18T22:31:05.393Z,72.49
2017-08-18T22:33:35.238Z,72.62
2017-08-18T22:36:04.927Z,72.04
2017-08-18T22:38:34.198Z,72.50
2017-08-18T22:41:04.005Z,73.22
2017-08-18T22:43:34.444Z,73.68
2017-08-18T22:46:04.170Z,72.76
2017-08-18T22:48:33.720Z,73.24
2017-08-18T22:51:02.973Z,73.10
2017-08-18T22:53:32.306Z,73.69
2017-08-18T22:56:02.094Z,73.66
2017-08-18T22:58:34.359Z,74.21
2017-08-18T23:01:03.619Z,74.92
2017-08-18T23:03:32.999Z,73.90
2017-08-18T23:06:02.533Z,74.13
2017-08-18T23:08:31.694Z,73.86
2017-08-18T23:11:01.322Z,73.51
2017-08-18T23:13:30.545Z,74.17
2017-08-18T23:16:02.100Z,74.07
2017-08-18T23:18:31.563Z,74.51
2017-08-18T23:21:01.600Z,73.84
2017-08-18T23:23:31.254Z,74.39
2017-08-18T23:26:00.533Z,74.81
2017-08-18T23:28:30.586Z,74.63
2017-08-18T23:31:00.621Z,74.93
2017-08-18T23:33:29.903Z,74.73
2017-08-18T23:35:59.197Z,74.19
2017-08-18T23:38:29.536Z,74.36
2017-08-18T23:40:59.375Z,73.82
2017-08-18T23:43:29.053Z,73.26
2017-08-18T23:45:58.703Z,72.87
2017-08-18T23:48:28.661Z,72.67
2017-08-18T23:50:57.930Z,72.91
2017-08-18T23:53:27.822Z,72.24
2017-08-18T23:55:57.376Z,72.71
2017-08-18T23:58:27.880Z,73.00
